sensor_id;sensor_type;location;lat;lon;timestamp;temperature;humidity
22491;DHT22;11412;50.802;4.350;2023-02-18T00:01:13;12.00;99.90
22491;DHT22;11412;50.802;4.350;2023-02-18T00:03:39;11.90;99.90
22491;DHT22;11412;50.802;4.350;2023-02-18T00:06:16;11.90;99.90
22491;DHT22;11412;50.802;4.350;2023-02-18T00:08:43;11.90;99.90
22491;DHT22;11412;50.802;4.350;2023-02-18T00:11:10;11.90;99.90
22491;DHT22;11412;50.802;4.350;2023-02-18T00:13:36;12.00;99.90
22491;DHT22;11412;50.802;4.350;2023-02-18T00:16:07;11.90;99.90
22491;DHT22;11412;50.802;4.350;2023-02-18T00:18:33;11.90;99.90
22491;DHT22;11412;50.802;4.350;2023-02-18T00:20:59;11.90;99.90
22491;DHT22;11412;50.802;4.350;2023-02-18T00:23:26;11.90;99.90
22491;DHT22;11412;50.802;4.350;2023-02-18T00:26:03;12.00;99.90
22491;DHT22;11412;50.802;4.350;2023-02-18T00:28:29;12.00;99.90
22491;DHT22;11412;50.802;4.350;2023-02-18T00:30:55;12.20;99.90
22491;DHT22;11412;50.802;4.350;2023-02-18T00:33:20;12.20;99.90
22491;DHT22;11412;50.802;4.350;2023-02-18T00:35:46;12.10;99.90
22491;DHT22;11412;50.802;4.350;2023-02-18T00:38:12;12.10;99.90
22491;DHT22;11412;50.802;4.350;2023-02-18T00:40:39;12.10;99.90
22491;DHT22;11412;50.802;4.350;2023-02-18T00:43:04;12.00;99.90
22491;DHT22;11412;50.802;4.350;2023-02-18T00:45:30;11.90;99.90
22491;DHT22;11412;50.802;4.350;2023-02-18T00:47:56;12.00;99.90
22491;DHT22;11412;50.802;4.350;2023-02-18T00:50:22;12.00;99.90
22491;DHT22;11412;50.802;4.350;2023-02-18T00:52:47;12.10;99.90
22491;DHT22;11412;50.802;4.350;2023-02-18T00:55:13;12.10;99.90
22491;DHT22;11412;50.802;4.350;2023-02-18T00:57:39;12.00;99.90
22491;DHT22;11412;50.802;4.350;2023-02-18T01:00:05;12.00;99.90
22491;DHT22;11412;50.802;4.350;2023-02-18T01:02:32;12.00;99.90
22491;DHT22;11412;50.802;4.350;2023-02-18T01:04:57;12.10;99.90
22491;DHT22;11412;50.802;4.350;2023-02-18T01:07:23;11.90;99.90
22491;DHT22;11412;50.802;4.350;2023-02-18T01:09:48;12.00;99.90
22491;DHT22;11412;50.802;4.350;2023-02-18T01:12:14;11.90;99.90
22491;DHT22;11412;50.802;4.350;2023-02-18T01:14:40;12.00;99.90
22491;DHT22;11412;50.802;4.350;2023-02-18T01:17:05;12.00;99.90
22491;DHT22;11412;50.802;4.350;2023-02-18T01:19:31;11.80;99.90
22491;DHT22;11412;50.802;4.350;2023-02-18T01:21:56;11.80;99.90
22491;DHT22;11412;50.802;4.350;2023-02-18T01:24:22;11.90;99.90
22491;DHT22;11412;50.802;4.350;2023-02-18T01:26:48;11.90;99.90
22491;DHT22;11412;50.802;4.350;2023-02-18T01:29:13;11.90;99.90
22491;DHT22;11412;50.802;4.350;2023-02-18T01:31:39;11.80;99.90
22491;DHT22;11412;50.802;4.350;2023-02-18T01:34:05;12.00;99.90
22491;DHT22;11412;50.802;4.350;2023-02-18T01:36:30;12.00;99.90
22491;DHT22;11412;50.802;4.350;2023-02-18T01:38:57;12.00;99.90
22491;DHT22;11412;50.802;4.350;2023-02-18T01:41:23;11.70;99.90
22491;DHT22;11412;50.802;4.350;2023-02-18T01:44:10;12.00;99.90
22491;DHT22;11412;50.802;4.350;2023-02-18T01:46:35;11.90;99.90
22491;DHT22;11412;50.802;4.350;2023-02-18T01:49:01;11.70;99.90
22491;DHT22;11412;50.802;4.350;2023-02-18T01:51:30;11.70;99.90
22491;DHT22;11412;50.802;4.350;2023-02-18T01:54:00;11.70;99.90
22491;DHT22;11412;50.802;4.350;2023-02-18T01:56:40;11.70;99.90
22491;DHT22;11412;50.802;4.350;2023-02-18T01:59:12;11.80;99.90
22491;DHT22;11412;50.802;4.350;2023-02-18T02:01:41;11.70;99.90
22491;DHT22;11412;50.802;4.350;2023-02-18T02:04:08;11.70;99.90
22491;DHT22;11412;50.802;4.350;2023-02-18T02:06:34;11.90;99.90
22491;DHT22;11412;50.802;4.350;2023-02-18T02:09:02;11.90;99.90
22491;DHT22;11412;50.802;4.350;2023-02-18T02:14:52;11.60;99.90
22491;DHT22;11412;50.802;4.350;2023-02-18T02:17:47;11.60;99.90
22491;DHT22;11412;50.802;4.350;2023-02-18T02:35:32;11.60;99.90
22491;DHT22;11412;50.802;4.350;2023-02-18T02:38:06;11.70;99.90
22491;DHT22;11412;50.802;4.350;2023-02-18T02:40:46;11.60;99.90
22491;DHT22;11412;50.802;4.350;2023-02-18T02:54:25;11.70;99.90
22491;DHT22;11412;50.802;4.350;2023-02-18T03:00:01;11.80;99.90
22491;DHT22;11412;50.802;4.350;2023-02-18T03:03:31;11.70;99.90
22491;DHT22;11412;50.802;4.350;2023-02-18T03:05:53;11.80;99.90
22491;DHT22;11412;50.802;4.350;2023-02-18T03:09:04;11.70;99.90
22491;DHT22;11412;50.802;4.350;2023-02-18T03:11:47;11.60;99.90
22491;DHT22;11412;50.802;4.350;2023-02-18T03:14:27;11.30;99.90
22491;DHT22;11412;50.802;4.350;2023-02-18T03:17:02;11.40;99.90
22491;DHT22;11412;50.802;4.350;2023-02-18T03:19:39;11.40;99.90
22491;DHT22;11412;50.802;4.350;2023-02-18T03:22:11;11.40;99.90
22491;DHT22;11412;50.802;4.350;2023-02-18T03:24:46;11.50;99.90
22491;DHT22;11412;50.802;4.350;2023-02-18T03:27:23;11.50;99.90
22491;DHT22;11412;50.802;4.350;2023-02-18T03:29:54;11.60;99.90
22491;DHT22;11412;50.802;4.350;2023-02-18T03:32:21;11.70;99.90
22491;DHT22;11412;50.802;4.350;2023-02-18T03:34:50;11.60;99.90
22491;DHT22;11412;50.802;4.350;2023-02-18T03:37:18;11.70;99.90
22491;DHT22;11412;50.802;4.350;2023-02-18T03:39:48;11.70;99.90
22491;DHT22;11412;50.802;4.350;2023-02-18T03:42:15;11.60;99.90
22491;DHT22;11412;50.802;4.350;2023-02-18T03:44:43;11.50;99.90
22491;DHT22;11412;50.802;4.350;2023-02-18T03:47:09;11.50;99.90
22491;DHT22;11412;50.802;4.350;2023-02-18T03:49:34;11.50;99.90
22491;DHT22;11412;50.802;4.350;2023-02-18T03:52:00;11.40;99.90
22491;DHT22;11412;50.802;4.350;2023-02-18T03:54:26;11.50;99.90
22491;DHT22;11412;50.802;4.350;2023-02-18T03:56:51;11.40;99.90
22491;DHT22;11412;50.802;4.350;2023-02-18T03:59:17;11.50;99.90
22491;DHT22;11412;50.802;4.350;2023-02-18T04:01:42;11.50;99.90
22491;DHT22;11412;50.802;4.350;2023-02-18T04:04:08;11.50;99.90
22491;DHT22;11412;50.802;4.350;2023-02-18T04:06:34;11.50;99.90
22491;DHT22;11412;50.802;4.350;2023-02-18T04:08:59;11.50;99.90
22491;DHT22;11412;50.802;4.350;2023-02-18T04:11:25;11.40;99.90
22491;DHT22;11412;50.802;4.350;2023-02-18T04:13:51;11.30;99.90
22491;DHT22;11412;50.802;4.350;2023-02-18T04:16:16;11.20;99.90
22491;DHT22;11412;50.802;4.350;2023-02-18T04:18:42;11.30;99.90
22491;DHT22;11412;50.802;4.350;2023-02-18T04:21:08;11.40;99.90
22491;DHT22;11412;50.802;4.350;2023-02-18T04:23:33;11.20;99.90
22491;DHT22;11412;50.802;4.350;2023-02-18T04:25:59;11.30;99.90
22491;DHT22;11412;50.802;4.350;2023-02-18T04:28:25;11.30;99.90
22491;DHT22;11412;50.802;4.350;2023-02-18T04:30:50;11.40;99.90
22491;DHT22;11412;50.802;4.350;2023-02-18T04:33:16;11.30;99.90
22491;DHT22;11412;50.802;4.350;2023-02-18T04:35:42;11.20;99.90
22491;DHT22;11412;50.802;4.350;2023-02-18T04:38:08;11.20;99.90
22491;DHT22;11412;50.802;4.350;2023-02-18T04:40:34;11.30;99.90
22491;DHT22;11412;50.802;4.350;2023-02-18T04:43:00;11.30;99.90
22491;DHT22;11412;50.802;4.350;2023-02-18T04:45:27;11.40;99.90
22491;DHT22;11412;50.802;4.350;2023-02-18T04:47:53;11.10;99.90
22491;DHT22;11412;50.802;4.350;2023-02-18T04:50:19;11.20;99.90
22491;DHT22;11412;50.802;4.350;2023-02-18T04:52:45;11.20;99.90
22491;DHT22;11412;50.802;4.350;2023-02-18T04:55:10;11.30;99.90
22491;DHT22;11412;50.802;4.350;2023-02-18T04:57:37;11.20;99.90
22491;DHT22;11412;50.802;4.350;2023-02-18T05:00:06;11.30;99.90
22491;DHT22;11412;50.802;4.350;2023-02-18T05:02:32;11.20;99.90
22491;DHT22;11412;50.802;4.350;2023-02-18T05:04:58;11.10;99.90
22491;DHT22;11412;50.802;4.350;2023-02-18T05:07:24;11.10;99.90
22491;DHT22;11412;50.802;4.350;2023-02-18T05:09:49;11.20;99.90
22491;DHT22;11412;50.802;4.350;2023-02-18T05:12:15;11.20;99.90
22491;DHT22;11412;50.802;4.350;2023-02-18T05:14:41;11.10;99.90
22491;DHT22;11412;50.802;4.350;2023-02-18T05:17:06;11.20;99.90
22491;DHT22;11412;50.802;4.350;2023-02-18T05:19:32;11.20;99.90
22491;DHT22;11412;50.802;4.350;2023-02-18T05:21:58;11.20;99.90
22491;DHT22;11412;50.802;4.350;2023-02-18T05:24:23;11.20;99.90
22491;DHT22;11412;50.802;4.350;2023-02-18T05:26:49;11.30;99.90
22491;DHT22;11412;50.802;4.350;2023-02-18T05:29:15;11.30;99.90
22491;DHT22;11412;50.802;4.350;2023-02-18T05:31:41;11.30;99.90
22491;DHT22;11412;50.802;4.350;2023-02-18T05:34:06;11.20;99.90
22491;DHT22;11412;50.802;4.350;2023-02-18T05:36:32;11.10;99.90
22491;DHT22;11412;50.802;4.350;2023-02-18T05:38:58;11.20;99.90
22491;DHT22;11412;50.802;4.350;2023-02-18T05:41:23;11.20;99.90
22491;DHT22;11412;50.802;4.350;2023-02-18T05:43:49;11.00;99.90
22491;DHT22;11412;50.802;4.350;2023-02-18T05:46:35;11.00;99.90
22491;DHT22;11412;50.802;4.350;2023-02-18T05:49:01;11.00;99.90
22491;DHT22;11412;50.802;4.350;2023-02-18T05:51:26;11.00;99.90
22491;DHT22;11412;50.802;4.350;2023-02-18T05:53:52;11.00;99.90
22491;DHT22;11412;50.802;4.350;2023-02-18T05:56:18;11.00;99.90
22491;DHT22;11412;50.802;4.350;2023-02-18T05:58:44;11.00;99.90
22491;DHT22;11412;50.802;4.350;2023-02-18T06:01:09;11.00;99.90
22491;DHT22;11412;50.802;4.350;2023-02-18T06:03:35;11.10;99.90
22491;DHT22;11412;50.802;4.350;2023-02-18T06:06:01;11.00;99.90
22491;DHT22;11412;50.802;4.350;2023-02-18T06:08:26;11.10;99.90
22491;DHT22;11412;50.802;4.350;2023-02-18T06:10:52;11.10;99.90
22491;DHT22;11412;50.802;4.350;2023-02-18T06:13:18;11.10;99.90
22491;DHT22;11412;50.802;4.350;2023-02-18T06:15:44;11.00;99.90
22491;DHT22;11412;50.802;4.350;2023-02-18T06:18:09;10.90;99.90
22491;DHT22;11412;50.802;4.350;2023-02-18T06:20:35;10.80;99.90
22491;DHT22;11412;50.802;4.350;2023-02-18T06:23:00;10.90;99.90
22491;DHT22;11412;50.802;4.350;2023-02-18T06:25:26;10.80;99.90
22491;DHT22;11412;50.802;4.350;2023-02-18T06:27:52;10.70;99.90
22491;DHT22;11412;50.802;4.350;2023-02-18T06:30:18;10.90;99.90
22491;DHT22;11412;50.802;4.350;2023-02-18T06:32:43;10.80;99.90
22491;DHT22;11412;50.802;4.350;2023-02-18T06:35:09;10.70;99.90
22491;DHT22;11412;50.802;4.350;2023-02-18T06:37:35;10.90;99.90
22491;DHT22;11412;50.802;4.350;2023-02-18T06:40:00;10.90;99.90
22491;DHT22;11412;50.802;4.350;2023-02-18T06:42:26;10.90;99.90
22491;DHT22;11412;50.802;4.350;2023-02-18T06:44:51;10.80;99.90
22491;DHT22;11412;50.802;4.350;2023-02-18T06:47:17;10.80;99.90
22491;DHT22;11412;50.802;4.350;2023-02-18T06:49:43;10.70;99.90
22491;DHT22;11412;50.802;4.350;2023-02-18T06:52:08;10.80;99.90
22491;DHT22;11412;50.802;4.350;2023-02-18T06:54:34;10.70;99.90
22491;DHT22;11412;50.802;4.350;2023-02-18T06:57:00;10.60;99.90
22491;DHT22;11412;50.802;4.350;2023-02-18T06:59:26;10.70;99.90
22491;DHT22;11412;50.802;4.350;2023-02-18T07:01:51;10.70;99.90
22491;DHT22;11412;50.802;4.350;2023-02-18T07:04:17;10.60;99.90
22491;DHT22;11412;50.802;4.350;2023-02-18T07:06:43;10.70;99.90
22491;DHT22;11412;50.802;4.350;2023-02-18T07:09:08;10.70;99.90
22491;DHT22;11412;50.802;4.350;2023-02-18T07:11:34;10.80;99.90
22491;DHT22;11412;50.802;4.350;2023-02-18T07:14:00;10.70;99.90
22491;DHT22;11412;50.802;4.350;2023-02-18T07:16:26;10.60;99.90
22491;DHT22;11412;50.802;4.350;2023-02-18T07:18:51;10.70;99.90
22491;DHT22;11412;50.802;4.350;2023-02-18T07:21:17;10.50;99.90
22491;DHT22;11412;50.802;4.350;2023-02-18T07:23:42;10.60;99.90
22491;DHT22;11412;50.802;4.350;2023-02-18T07:26:10;10.40;99.90
22491;DHT22;11412;50.802;4.350;2023-02-18T07:28:37;10.50;99.90
22491;DHT22;11412;50.802;4.350;2023-02-18T07:31:03;10.40;99.90
22491;DHT22;11412;50.802;4.350;2023-02-18T07:33:29;10.40;99.90
22491;DHT22;11412;50.802;4.350;2023-02-18T07:35:56;10.40;99.90
22491;DHT22;11412;50.802;4.350;2023-02-18T07:38:23;10.70;99.90
22491;DHT22;11412;50.802;4.350;2023-02-18T07:40:49;10.60;99.90
22491;DHT22;11412;50.802;4.350;2023-02-18T07:43:16;10.60;99.90
22491;DHT22;11412;50.802;4.350;2023-02-18T07:45:42;10.70;99.90
22491;DHT22;11412;50.802;4.350;2023-02-18T07:48:07;10.70;99.90
22491;DHT22;11412;50.802;4.350;2023-02-18T07:50:33;10.80;99.90
22491;DHT22;11412;50.802;4.350;2023-02-18T07:53:03;10.80;99.90
22491;DHT22;11412;50.802;4.350;2023-02-18T07:55:30;10.80;99.90
22491;DHT22;11412;50.802;4.350;2023-02-18T07:58:25;10.90;99.90
22491;DHT22;11412;50.802;4.350;2023-02-18T08:00:53;11.00;99.90
22491;DHT22;11412;50.802;4.350;2023-02-18T08:03:20;11.10;99.90
22491;DHT22;11412;50.802;4.350;2023-02-18T08:05:48;11.00;99.90
22491;DHT22;11412;50.802;4.350;2023-02-18T08:08:16;10.90;99.90
22491;DHT22;11412;50.802;4.350;2023-02-18T08:10:42;10.90;99.90
22491;DHT22;11412;50.802;4.350;2023-02-18T08:13:08;10.90;99.90
22491;DHT22;11412;50.802;4.350;2023-02-18T08:15:34;11.00;99.90
22491;DHT22;11412;50.802;4.350;2023-02-18T08:18:00;11.10;99.90
22491;DHT22;11412;50.802;4.350;2023-02-18T08:20:26;11.00;99.90
22491;DHT22;11412;50.802;4.350;2023-02-18T08:22:52;11.00;99.90
22491;DHT22;11412;50.802;4.350;2023-02-18T08:25:17;11.00;99.90
22491;DHT22;11412;50.802;4.350;2023-02-18T08:27:43;11.00;99.90
22491;DHT22;11412;50.802;4.350;2023-02-18T08:30:09;11.20;99.90
22491;DHT22;11412;50.802;4.350;2023-02-18T08:32:35;11.20;99.90
22491;DHT22;11412;50.802;4.350;2023-02-18T08:35:01;11.30;99.90
22491;DHT22;11412;50.802;4.350;2023-02-18T08:37:27;11.30;99.90
22491;DHT22;11412;50.802;4.350;2023-02-18T08:39:53;11.20;99.90
22491;DHT22;11412;50.802;4.350;2023-02-18T08:42:19;11.20;99.90
22491;DHT22;11412;50.802;4.350;2023-02-18T08:44:45;11.20;99.90
22491;DHT22;11412;50.802;4.350;2023-02-18T08:47:10;11.10;99.90
22491;DHT22;11412;50.802;4.350;2023-02-18T08:49:36;11.00;99.90
22491;DHT22;11412;50.802;4.350;2023-02-18T08:52:03;11.10;99.90
22491;DHT22;11412;50.802;4.350;2023-02-18T08:54:29;11.10;99.90
22491;DHT22;11412;50.802;4.350;2023-02-18T08:56:55;11.10;99.90
22491;DHT22;11412;50.802;4.350;2023-02-18T08:59:24;11.10;99.90
22491;DHT22;11412;50.802;4.350;2023-02-18T09:01:50;11.10;99.90
22491;DHT22;11412;50.802;4.350;2023-02-18T09:04:16;11.30;99.90
22491;DHT22;11412;50.802;4.350;2023-02-18T09:06:42;11.30;99.90
22491;DHT22;11412;50.802;4.350;2023-02-18T09:09:08;11.30;99.90
22491;DHT22;11412;50.802;4.350;2023-02-18T09:11:34;11.20;99.90
22491;DHT22;11412;50.802;4.350;2023-02-18T09:14:00;11.30;99.90
22491;DHT22;11412;50.802;4.350;2023-02-18T09:16:27;11.30;99.90
22491;DHT22;11412;50.802;4.350;2023-02-18T09:18:55;11.20;99.90
22491;DHT22;11412;50.802;4.350;2023-02-18T09:21:21;11.20;99.90
22491;DHT22;11412;50.802;4.350;2023-02-18T09:23:49;11.20;99.90
22491;DHT22;11412;50.802;4.350;2023-02-18T09:26:17;11.20;99.90
22491;DHT22;11412;50.802;4.350;2023-02-18T09:28:43;11.30;99.90
22491;DHT22;11412;50.802;4.350;2023-02-18T09:31:15;11.20;99.90
22491;DHT22;11412;50.802;4.350;2023-02-18T09:33:44;11.40;99.90
22491;DHT22;11412;50.802;4.350;2023-02-18T09:36:10;11.40;99.90
22491;DHT22;11412;50.802;4.350;2023-02-18T09:38:36;11.40;99.90
22491;DHT22;11412;50.802;4.350;2023-02-18T09:41:06;11.30;99.90
22491;DHT22;11412;50.802;4.350;2023-02-18T09:43:39;11.30;99.90
22491;DHT22;11412;50.802;4.350;2023-02-18T09:48:43;11.30;99.90
22491;DHT22;11412;50.802;4.350;2023-02-18T09:51:13;11.20;99.90
22491;DHT22;11412;50.802;4.350;2023-02-18T09:53:41;11.30;99.90
22491;DHT22;11412;50.802;4.350;2023-02-18T09:56:11;11.30;99.90
22491;DHT22;11412;50.802;4.350;2023-02-18T09:58:38;11.40;99.90
22491;DHT22;11412;50.802;4.350;2023-02-18T10:04:15;11.50;99.90
22491;DHT22;11412;50.802;4.350;2023-02-18T10:06:44;11.50;99.90
22491;DHT22;11412;50.802;4.350;2023-02-18T10:09:33;11.40;99.90
22491;DHT22;11412;50.802;4.350;2023-02-18T10:12:15;11.50;99.90
22491;DHT22;11412;50.802;4.350;2023-02-18T10:15:00;11.50;99.90
22491;DHT22;11412;50.802;4.350;2023-02-18T10:17:29;11.60;99.90
22491;DHT22;11412;50.802;4.350;2023-02-18T10:19:57;11.40;99.90
22491;DHT22;11412;50.802;4.350;2023-02-18T10:22:25;11.40;99.90
22491;DHT22;11412;50.802;4.350;2023-02-18T10:25:00;11.40;99.90
22491;DHT22;11412;50.802;4.350;2023-02-18T10:27:32;11.40;99.90
22491;DHT22;11412;50.802;4.350;2023-02-18T10:32:41;11.50;99.90
22491;DHT22;11412;50.802;4.350;2023-02-18T10:35:37;11.70;99.90
22491;DHT22;11412;50.802;4.350;2023-02-18T10:38:13;11.60;99.90
22491;DHT22;11412;50.802;4.350;2023-02-18T10:49:08;11.70;99.90
22491;DHT22;11412;50.802;4.350;2023-02-18T10:51:47;11.70;99.90
22491;DHT22;11412;50.802;4.350;2023-02-18T10:54:14;11.70;99.90
22491;DHT22;11412;50.802;4.350;2023-02-18T10:56:48;11.60;99.90
22491;DHT22;11412;50.802;4.350;2023-02-18T10:59:20;11.70;99.90
22491;DHT22;11412;50.802;4.350;2023-02-18T11:02:02;11.80;99.90
22491;DHT22;11412;50.802;4.350;2023-02-18T11:04:39;11.80;99.90
22491;DHT22;11412;50.802;4.350;2023-02-18T11:07:33;11.60;99.90
22491;DHT22;11412;50.802;4.350;2023-02-18T11:10:08;11.70;99.90
22491;DHT22;11412;50.802;4.350;2023-02-18T11:12:44;11.70;99.90
22491;DHT22;11412;50.802;4.350;2023-02-18T11:17:40;11.90;99.90
22491;DHT22;11412;50.802;4.350;2023-02-18T11:20:25;12.00;99.90
22491;DHT22;11412;50.802;4.350;2023-02-18T11:22:51;11.90;99.90
22491;DHT22;11412;50.802;4.350;2023-02-18T11:25:37;12.00;99.90
22491;DHT22;11412;50.802;4.350;2023-02-18T11:28:04;12.00;99.90
22491;DHT22;11412;50.802;4.350;2023-02-18T11:30:36;12.00;99.90
22491;DHT22;11412;50.802;4.350;2023-02-18T11:33:08;12.10;99.90
22491;DHT22;11412;50.802;4.350;2023-02-18T11:35:34;12.20;99.90
22491;DHT22;11412;50.802;4.350;2023-02-18T11:38:02;12.20;99.90
22491;DHT22;11412;50.802;4.350;2023-02-18T11:40:29;12.10;99.90
22491;DHT22;11412;50.802;4.350;2023-02-18T11:43:13;12.20;99.90
22491;DHT22;11412;50.802;4.350;2023-02-18T11:45:40;12.00;99.90
22491;DHT22;11412;50.802;4.350;2023-02-18T11:48:17;12.10;99.90
22491;DHT22;11412;50.802;4.350;2023-02-18T11:50:45;12.10;99.90
22491;DHT22;11412;50.802;4.350;2023-02-18T11:53:33;12.00;99.90
22491;DHT22;11412;50.802;4.350;2023-02-18T11:56:16;12.00;99.90
22491;DHT22;11412;50.802;4.350;2023-02-18T11:58:46;12.20;99.90
22491;DHT22;11412;50.802;4.350;2023-02-18T12:04:18;12.20;99.90
22491;DHT22;11412;50.802;4.350;2023-02-18T12:07:10;12.20;99.90
22491;DHT22;11412;50.802;4.350;2023-02-18T12:09:50;12.20;99.90
22491;DHT22;11412;50.802;4.350;2023-02-18T12:12:29;12.40;99.90
22491;DHT22;11412;50.802;4.350;2023-02-18T12:14:56;12.20;99.90
22491;DHT22;11412;50.802;4.350;2023-02-18T12:20:43;12.30;99.90
22491;DHT22;11412;50.802;4.350;2023-02-18T12:26:22;12.40;99.90
22491;DHT22;11412;50.802;4.350;2023-02-18T12:42:00;12.40;99.90
22491;DHT22;11412;50.802;4.350;2023-02-18T12:47:30;12.50;99.90
22491;DHT22;11412;50.802;4.350;2023-02-18T12:50:11;12.40;99.90
22491;DHT22;11412;50.802;4.350;2023-02-18T12:58:16;12.40;99.90
22491;DHT22;11412;50.802;4.350;2023-02-18T13:00:59;12.40;99.90
22491;DHT22;11412;50.802;4.350;2023-02-18T13:04:09;12.20;99.90
22491;DHT22;11412;50.802;4.350;2023-02-18T13:06:55;12.20;99.90
22491;DHT22;11412;50.802;4.350;2023-02-18T13:12:14;12.20;99.90
22491;DHT22;11412;50.802;4.350;2023-02-18T13:14:50;12.00;99.90
22491;DHT22;11412;50.802;4.350;2023-02-18T13:17:23;12.00;99.90
22491;DHT22;11412;50.802;4.350;2023-02-18T13:20:00;11.90;99.90
22491;DHT22;11412;50.802;4.350;2023-02-18T13:22:29;11.80;99.90
22491;DHT22;11412;50.802;4.350;2023-02-18T13:24:56;11.70;99.90
22491;DHT22;11412;50.802;4.350;2023-02-18T13:28:28;11.70;99.90
22491;DHT22;11412;50.802;4.350;2023-02-18T13:36:02;11.80;99.90
22491;DHT22;11412;50.802;4.350;2023-02-18T13:41:16;11.70;99.90
22491;DHT22;11412;50.802;4.350;2023-02-18T13:43:42;11.80;99.90
22491;DHT22;11412;50.802;4.350;2023-02-18T13:48:54;11.70;99.90
22491;DHT22;11412;50.802;4.350;2023-02-18T13:56:49;11.40;99.90
22491;DHT22;11412;50.802;4.350;2023-02-18T13:59:31;11.50;99.90
22491;DHT22;11412;50.802;4.350;2023-02-18T14:02:29;11.60;99.90
22491;DHT22;11412;50.802;4.350;2023-02-18T14:15:56;11.60;99.90
22491;DHT22;11412;50.802;4.350;2023-02-18T14:21:20;11.70;99.90
22491;DHT22;11412;50.802;4.350;2023-02-18T14:23:56;11.60;99.90
22491;DHT22;11412;50.802;4.350;2023-02-18T14:26:28;11.50;99.90
22491;DHT22;11412;50.802;4.350;2023-02-18T14:28:56;11.50;99.90
22491;DHT22;11412;50.802;4.350;2023-02-18T14:31:29;11.40;99.90
22491;DHT22;11412;50.802;4.350;2023-02-18T14:36:40;11.60;99.90
22491;DHT22;11412;50.802;4.350;2023-02-18T14:42:33;11.40;99.90
22491;DHT22;11412;50.802;4.350;2023-02-18T14:45:34;11.40;99.90
22491;DHT22;11412;50.802;4.350;2023-02-18T14:48:18;11.40;99.90
22491;DHT22;11412;50.802;4.350;2023-02-18T14:50:48;11.50;99.90
22491;DHT22;11412;50.802;4.350;2023-02-18T14:53:20;11.60;99.90
22491;DHT22;11412;50.802;4.350;2023-02-18T14:55:56;11.60;99.90
22491;DHT22;11412;50.802;4.350;2023-02-18T14:58:41;11.60;99.90
22491;DHT22;11412;50.802;4.350;2023-02-18T15:01:33;11.80;99.90
22491;DHT22;11412;50.802;4.350;2023-02-18T15:04:00;11.60;99.90
22491;DHT22;11412;50.802;4.350;2023-02-18T15:06:31;11.60;99.90
22491;DHT22;11412;50.802;4.350;2023-02-18T15:08:58;11.60;99.90
22491;DHT22;11412;50.802;4.350;2023-02-18T15:11:37;11.70;99.90
22491;DHT22;11412;50.802;4.350;2023-02-18T15:14:19;11.70;99.90
22491;DHT22;11412;50.802;4.350;2023-02-18T15:16:46;11.70;99.90
22491;DHT22;11412;50.802;4.350;2023-02-18T15:19:26;11.70;99.90
22491;DHT22;11412;50.802;4.350;2023-02-18T15:21:55;11.70;99.90
22491;DHT22;11412;50.802;4.350;2023-02-18T15:24:34;11.80;99.90
22491;DHT22;11412;50.802;4.350;2023-02-18T15:27:23;11.90;99.90
22491;DHT22;11412;50.802;4.350;2023-02-18T15:29:52;11.90;99.90
22491;DHT22;11412;50.802;4.350;2023-02-18T15:32:26;11.70;99.90
22491;DHT22;11412;50.802;4.350;2023-02-18T15:34:59;11.60;99.90
22491;DHT22;11412;50.802;4.350;2023-02-18T15:37:28;11.80;99.90
22491;DHT22;11412;50.802;4.350;2023-02-18T15:39:55;11.80;99.90
22491;DHT22;11412;50.802;4.350;2023-02-18T15:42:33;11.70;99.90
22491;DHT22;11412;50.802;4.350;2023-02-18T15:45:50;11.70;99.90
22491;DHT22;11412;50.802;4.350;2023-02-18T15:47:53;11.60;99.90
22491;DHT22;11412;50.802;4.350;2023-02-18T15:50:22;11.70;99.90
22491;DHT22;11412;50.802;4.350;2023-02-18T15:52:53;11.70;99.90
22491;DHT22;11412;50.802;4.350;2023-02-18T15:55:26;11.70;99.90
22491;DHT22;11412;50.802;4.350;2023-02-18T15:57:54;11.80;99.90
22491;DHT22;11412;50.802;4.350;2023-02-18T16:00:34;11.90;99.90
22491;DHT22;11412;50.802;4.350;2023-02-18T16:03:24;11.70;99.90
22491;DHT22;11412;50.802;4.350;2023-02-18T16:09:03;11.50;99.90
22491;DHT22;11412;50.802;4.350;2023-02-18T16:11:34;11.50;99.90
22491;DHT22;11412;50.802;4.350;2023-02-18T16:14:01;11.40;99.90
22491;DHT22;11412;50.802;4.350;2023-02-18T16:16:32;11.50;99.90
22491;DHT22;11412;50.802;4.350;2023-02-18T16:18:59;11.40;99.90
22491;DHT22;11412;50.802;4.350;2023-02-18T16:24:16;11.50;99.90
22491;DHT22;11412;50.802;4.350;2023-02-18T16:26:46;11.50;99.90
22491;DHT22;11412;50.802;4.350;2023-02-18T16:29:33;11.50;99.90
22491;DHT22;11412;50.802;4.350;2023-02-18T16:31:59;11.60;99.90
22491;DHT22;11412;50.802;4.350;2023-02-18T16:34:25;11.70;99.90
22491;DHT22;11412;50.802;4.350;2023-02-18T16:36:52;11.70;99.90
22491;DHT22;11412;50.802;4.350;2023-02-18T16:39:36;11.60;99.90
22491;DHT22;11412;50.802;4.350;2023-02-18T16:42:02;11.50;99.90
22491;DHT22;11412;50.802;4.350;2023-02-18T16:44:28;11.70;99.90
22491;DHT22;11412;50.802;4.350;2023-02-18T16:46:53;11.80;99.90
22491;DHT22;11412;50.802;4.350;2023-02-18T16:49:19;11.70;99.90
22491;DHT22;11412;50.802;4.350;2023-02-18T16:51:45;11.60;99.90
22491;DHT22;11412;50.802;4.350;2023-02-18T16:54:13;11.60;99.90
22491;DHT22;11412;50.802;4.350;2023-02-18T16:56:40;11.50;99.90
22491;DHT22;11412;50.802;4.350;2023-02-18T16:59:06;11.40;99.90
22491;DHT22;11412;50.802;4.350;2023-02-18T17:01:40;11.60;99.90
22491;DHT22;11412;50.802;4.350;2023-02-18T17:04:14;11.60;99.90
22491;DHT22;11412;50.802;4.350;2023-02-18T17:06:40;11.60;99.90
22491;DHT22;11412;50.802;4.350;2023-02-18T17:09:15;11.60;99.90
22491;DHT22;11412;50.802;4.350;2023-02-18T17:11:45;11.50;99.90
22491;DHT22;11412;50.802;4.350;2023-02-18T17:14:17;11.70;99.90
22491;DHT22;11412;50.802;4.350;2023-02-18T17:16:44;11.70;99.90
22491;DHT22;11412;50.802;4.350;2023-02-18T17:19:09;11.70;99.90
22491;DHT22;11412;50.802;4.350;2023-02-18T17:21:35;11.70;99.90
22491;DHT22;11412;50.802;4.350;2023-02-18T17:24:01;11.70;99.90
22491;DHT22;11412;50.802;4.350;2023-02-18T17:26:28;11.60;99.90
22491;DHT22;11412;50.802;4.350;2023-02-18T17:28:57;11.80;99.90
22491;DHT22;11412;50.802;4.350;2023-02-18T17:31:27;11.90;99.90
22491;DHT22;11412;50.802;4.350;2023-02-18T17:33:54;12.00;99.90
22491;DHT22;11412;50.802;4.350;2023-02-18T17:36:21;12.00;99.90
22491;DHT22;11412;50.802;4.350;2023-02-18T17:38:47;11.80;99.90
22491;DHT22;11412;50.802;4.350;2023-02-18T17:41:14;11.60;99.90
22491;DHT22;11412;50.802;4.350;2023-02-18T17:43:40;11.70;99.90
22491;DHT22;11412;50.802;4.350;2023-02-18T17:46:10;11.90;99.90
22491;DHT22;11412;50.802;4.350;2023-02-18T17:48:36;11.90;99.90
22491;DHT22;11412;50.802;4.350;2023-02-18T17:51:02;11.70;99.90
22491;DHT22;11412;50.802;4.350;2023-02-18T17:53:29;11.80;99.90
22491;DHT22;11412;50.802;4.350;2023-02-18T17:55:54;11.80;99.90